createdAt,value
2022-08-05T00:00:34.505Z,13.93
2022-08-05T00:03:15.753Z,20.95
2022-08-05T00:06:06.562Z,16.00
2022-08-05T00:08:36.282Z,15.40
2022-08-05T00:11:07.561Z,19.33
2022-08-05T00:13:52.915Z,18.05
2022-08-05T00:16:36.304Z,29.48
2022-08-05T00:19:09.383Z,22.20
2022-08-05T00:21:37.273Z,17.52
2022-08-05T00:24:11.120Z,23.13
2022-08-05T00:26:51.791Z,18.83
2022-08-05T00:29:22.618Z,15.30
2022-08-05T00:32:12.278Z,17.27
2022-08-05T00:35:03.902Z,17.52
2022-08-05T00:37:50.707Z,13.65
2022-08-05T00:40:28.056Z,12.57
2022-08-05T00:43:01.431Z,14.73
2022-08-05T00:45:42.958Z,17.35
2022-08-05T00:48:16.076Z,16.08
2022-08-05T00:50:48.084Z,17.60
2022-08-05T00:54:01.187Z,27.83
2022-08-05T00:56:08.316Z,22.90
2022-08-05T00:58:36.946Z,16.88
2022-08-05T01:01:11.945Z,21.52
2022-08-05T01:06:15.266Z,19.83
2022-08-05T01:08:44.493Z,20.75
2022-08-05T01:11:22.118Z,17.95
2022-08-05T01:14:08.615Z,19.60
2022-08-05T01:16:52.454Z,17.08
2022-08-05T01:20:02.424Z,22.48
2022-08-05T01:22:47.119Z,15.90
2022-08-05T01:25:53.545Z,25.20
2022-08-05T01:28:33.979Z,17.35
2022-08-05T01:31:15.347Z,20.25
2022-08-05T01:33:53.650Z,22.20
2022-08-05T01:36:29.552Z,18.50
2022-08-05T01:39:00.906Z,24.38
2022-08-05T01:41:35.529Z,22.35
2022-08-05T01:44:09.823Z,20.35
2022-08-05T01:46:44.595Z,17.95
2022-08-05T01:49:24.273Z,20.50
2022-08-05T01:51:58.723Z,14.43
2022-08-05T01:54:45.939Z,16.48
2022-08-05T01:58:13.193Z,22.98
2022-08-05T02:00:15.002Z,22.05
2022-08-05T02:02:55.053Z,22.52
2022-08-05T02:05:30.342Z,23.15
2022-08-05T02:08:03.277Z,18.27
2022-08-05T02:10:40.270Z,20.08
2022-08-05T02:13:24.961Z,23.55
2022-08-05T02:16:05.536Z,23.88
2022-08-05T02:18:45.161Z,23.00
2022-08-05T02:21:19.240Z,22.35
2022-08-05T02:23:54.860Z,18.95
2022-08-05T02:26:33.739Z,21.77
2022-08-05T02:29:03.936Z,17.05
2022-08-05T02:31:35.855Z,17.75
2022-08-05T02:34:09.243Z,22.30
2022-08-05T02:36:44.228Z,20.73
2022-08-05T02:39:17.207Z,18.77
2022-08-05T02:42:00.689Z,21.45
2022-08-05T02:44:36.384Z,21.27
2022-08-05T02:47:11.212Z,18.73
2022-08-05T02:49:42.869Z,23.70
2022-08-05T02:52:29.996Z,26.70
2022-08-05T02:55:05.519Z,24.25
2022-08-05T02:58:11.547Z,20.35
2022-08-05T03:00:29.603Z,22.25
2022-08-05T03:03:01.586Z,26.45
2022-08-05T03:06:54.924Z,19.13
2022-08-05T03:08:27.097Z,20.95
2022-08-05T03:11:41.276Z,21.23
2022-08-05T03:13:51.581Z,20.42
2022-08-05T03:16:31.655Z,26.92
2022-08-05T03:19:04.210Z,23.40
2022-08-05T03:21:41.600Z,24.10
2022-08-05T03:24:26.889Z,22.48
2022-08-05T03:26:58.944Z,27.42
2022-08-05T03:29:45.747Z,26.20
2022-08-05T03:32:19.501Z,25.35
2022-08-05T03:34:51.373Z,23.48
2022-08-05T03:37:21.607Z,22.73
2022-08-05T03:40:00.930Z,24.58
2022-08-05T03:42:32.903Z,23.15
2022-08-05T03:45:22.709Z,24.15
2022-08-05T03:47:51.477Z,18.20
2022-08-05T03:50:22.959Z,22.35
2022-08-05T03:54:59.343Z,20.55
2022-08-05T03:56:12.094Z,25.70
2022-08-05T03:58:51.264Z,26.55
2022-08-05T04:01:23.811Z,23.80
2022-08-05T04:04:09.427Z,26.10
2022-08-05T04:06:47.807Z,23.98
2022-08-05T04:09:26.380Z,31.75
2022-08-05T04:11:56.788Z,29.05
2022-08-05T04:14:29.759Z,26.15
2022-08-05T04:17:00.647Z,22.63
2022-08-05T04:19:29.932Z,23.02
2022-08-05T04:22:08.358Z,23.73
2022-08-05T04:24:43.838Z,20.42
2022-08-05T04:27:13.820Z,25.55
2022-08-05T04:29:44.257Z,30.20
2022-08-05T04:32:13.120Z,20.95
2022-08-05T04:34:43.296Z,24.10
2022-08-05T04:37:13.118Z,24.60
2022-08-05T04:39:41.108Z,28.23
2022-08-05T04:42:09.561Z,31.15
2022-08-05T04:44:37.561Z,28.00
2022-08-05T04:47:08.627Z,29.23
2022-08-05T04:50:01.603Z,22.63
2022-08-05T04:52:33.366Z,22.63
2022-08-05T04:55:09.586Z,26.13
2022-08-05T04:57:48.039Z,24.75
2022-08-05T05:00:23.626Z,26.08
2022-08-05T05:02:52.115Z,24.20
2022-08-05T05:05:28.335Z,23.02
2022-08-05T05:08:02.351Z,22.58
2022-08-05T05:10:33.394Z,29.15
2022-08-05T05:13:04.041Z,27.58
2022-08-05T05:15:57.108Z,30.17
2022-08-05T05:18:31.405Z,26.42
2022-08-05T05:21:03.553Z,29.90
2022-08-05T05:24:01.705Z,30.42
2022-08-05T05:26:28.778Z,26.35
2022-08-05T05:29:14.729Z,21.15
2022-08-05T05:31:46.168Z,23.23
2022-08-05T05:34:15.485Z,20.38
2022-08-05T05:36:43.992Z,27.55
2022-08-05T05:39:16.523Z,24.13
2022-08-05T05:41:54.276Z,26.05
2022-08-05T05:47:21.679Z,22.85
2022-08-05T05:50:01.484Z,21.33
2022-08-05T05:52:34.593Z,19.73
2022-08-05T05:55:13.225Z,22.45
2022-08-05T05:57:52.231Z,19.52
2022-08-05T06:00:31.773Z,23.20
2022-08-05T06:03:39.855Z,18.70
2022-08-05T06:05:54.042Z,17.92
2022-08-05T06:08:32.744Z,14.85
2022-08-05T06:11:02.418Z,19.65
2022-08-05T06:13:40.768Z,17.00
2022-08-05T06:16:30.697Z,15.60
2022-08-05T06:19:01.236Z,19.65
2022-08-05T06:21:35.875Z,20.15
2022-08-05T06:26:51.464Z,17.92
2022-08-05T06:29:42.931Z,14.90
2022-08-05T06:32:24.943Z,15.07
2022-08-05T06:34:56.896Z,15.55
2022-08-05T06:37:55.818Z,16.02
2022-08-05T06:40:21.244Z,15.02
2022-08-05T06:42:52.746Z,11.30
2022-08-05T06:46:03.080Z,15.35
2022-08-05T06:48:36.497Z,15.85
2022-08-05T06:50:58.030Z,15.25
2022-08-05T06:53:28.384Z,15.80
2022-08-05T06:55:58.666Z,13.98
2022-08-05T06:58:34.866Z,16.70
2022-08-05T07:01:06.752Z,12.55
2022-08-05T07:03:35.578Z,11.32
2022-08-05T07:06:06.101Z,11.30
2022-08-05T07:08:47.847Z,8.57
2022-08-05T07:11:22.529Z,11.52
2022-08-05T07:14:20.569Z,12.02
2022-08-05T07:17:58.677Z,10.05
2022-08-05T07:22:42.131Z,9.20
2022-08-05T07:25:54.018Z,8.32
2022-08-05T07:28:05.349Z,8.35
2022-08-05T07:30:39.878Z,7.35
2022-08-05T07:33:16.028Z,9.05
2022-08-05T07:36:04.063Z,10.48
2022-08-05T07:38:42.865Z,8.85
2022-08-05T07:42:13.712Z,8.38
2022-08-05T07:44:18.492Z,10.25
2022-08-05T07:46:50.165Z,8.55
2022-08-05T07:49:20.436Z,7.45
2022-08-05T07:51:53.691Z,7.95
2022-08-05T07:59:48.890Z,9.45
2022-08-05T08:02:26.576Z,8.68
2022-08-05T08:04:59.138Z,8.27
2022-08-05T08:07:28.940Z,9.25
2022-08-05T08:10:11.504Z,10.45
2022-08-05T08:12:48.759Z,8.27
2022-08-05T08:15:18.156Z,10.35
2022-08-05T08:18:14.000Z,11.93
2022-08-05T08:21:02.801Z,13.13
2022-08-05T08:24:03.054Z,9.45
2022-08-05T08:26:26.704Z,8.80
2022-08-05T08:29:09.720Z,7.50
2022-08-05T08:31:48.713Z,12.18
2022-08-05T08:34:30.694Z,11.38
2022-08-05T08:37:03.426Z,14.23
2022-08-05T08:39:37.815Z,11.63
2022-08-05T08:42:32.362Z,13.95
2022-08-05T08:45:22.491Z,15.57
2022-08-05T08:48:06.805Z,12.93
2022-08-05T08:51:03.094Z,11.75
2022-08-05T08:53:44.267Z,14.30
2022-08-05T08:56:13.124Z,14.02
2022-08-05T08:58:47.739Z,7.90
2022-08-05T09:03:54.411Z,9.60
2022-08-05T09:06:30.209Z,13.63
2022-08-05T09:09:02.235Z,10.98
2022-08-05T09:11:53.027Z,12.40
2022-08-05T09:14:56.508Z,12.20
2022-08-05T09:17:41.326Z,11.38
2022-08-05T09:20:08.559Z,10.63
2022-08-05T09:23:19.442Z,12.25
2022-08-05T09:26:02.277Z,8.73
2022-08-05T09:28:34.857Z,8.68
2022-08-05T09:31:43.427Z,10.00
2022-08-05T09:33:59.115Z,11.02
2022-08-05T09:36:53.856Z,8.70
2022-08-05T09:39:39.380Z,9.10
2022-08-05T09:42:23.347Z,10.77
2022-08-05T09:45:17.385Z,9.32
2022-08-05T09:47:57.434Z,10.23
2022-08-05T09:50:38.511Z,9.55
2022-08-05T09:53:22.940Z,9.77
2022-08-05T09:56:03.780Z,9.77
2022-08-05T09:58:32.980Z,7.00
2022-08-05T10:01:14.801Z,8.32
2022-08-05T10:03:59.472Z,9.27
2022-08-05T10:06:30.982Z,9.20
2022-08-05T10:09:24.974Z,9.85
2022-08-05T10:12:30.269Z,7.60
2022-08-05T10:15:21.589Z,7.40
2022-08-05T10:18:13.331Z,10.45
2022-08-05T10:20:48.318Z,8.52
2022-08-05T10:23:34.168Z,6.72
2022-08-05T10:26:15.096Z,8.48
2022-08-05T10:28:49.911Z,6.22
2022-08-05T10:32:47.404Z,8.75
2022-08-05T10:34:09.120Z,5.68
2022-08-05T10:36:40.854Z,8.77
2022-08-05T10:39:24.330Z,5.70
2022-08-05T10:42:02.519Z,5.88
2022-08-05T10:44:33.849Z,3.72
2022-08-05T10:47:26.856Z,5.18
2022-08-05T10:50:33.151Z,4.65
2022-08-05T10:53:00.188Z,5.70
2022-08-05T10:55:28.517Z,5.75
2022-08-05T10:58:11.872Z,4.10
2022-08-05T11:00:48.270Z,5.53
2022-08-05T11:03:26.971Z,5.03
2022-08-05T11:06:15.974Z,4.75
2022-08-05T11:09:17.375Z,5.50
2022-08-05T11:11:52.730Z,4.22
2022-08-05T11:14:57.598Z,5.90
2022-08-05T11:18:09.508Z,5.95
2022-08-05T11:20:44.738Z,6.53
2022-08-05T11:24:04.240Z,6.55
2022-08-05T11:26:27.998Z,5.95
2022-08-05T11:28:58.696Z,6.25
2022-08-05T11:31:57.742Z,5.70
2022-08-05T11:34:39.338Z,7.30
2022-08-05T11:38:30.517Z,5.72
2022-08-05T11:40:03.684Z,5.78
2022-08-05T11:42:37.804Z,7.25
2022-08-05T11:45:14.194Z,6.13
2022-08-05T11:47:54.469Z,6.63
2022-08-05T11:50:25.174Z,5.35
2022-08-05T11:52:57.743Z,6.70
2022-08-05T11:55:32.175Z,6.05
2022-08-05T11:58:11.011Z,7.75
2022-08-05T12:00:44.233Z,7.88
2022-08-05T12:03:28.586Z,7.20
2022-08-05T12:06:10.159Z,6.47
2022-08-05T12:08:49.983Z,6.43
2022-08-05T12:11:21.530Z,6.70
2022-08-05T12:13:55.241Z,6.82
2022-08-05T12:16:29.484Z,6.25
2022-08-05T12:18:59.054Z,7.95
2022-08-05T12:21:31.870Z,7.18
2022-08-05T12:24:04.472Z,7.95
2022-08-05T12:26:37.645Z,6.00
2022-08-05T12:29:16.209Z,6.35
2022-08-05T12:31:53.476Z,5.60
2022-08-05T12:34:26.854Z,8.00
2022-08-05T12:37:17.142Z,6.07
2022-08-05T12:40:03.539Z,8.32
2022-08-05T12:42:40.609Z,5.55
2022-08-05T12:45:10.556Z,6.13
2022-08-05T12:47:43.511Z,5.28
2022-08-05T12:50:31.001Z,5.60
2022-08-05T12:53:00.401Z,4.55
2022-08-05T12:55:33.073Z,4.20
2022-08-05T13:02:00.103Z,2.95
2022-08-05T13:03:42.844Z,4.03
2022-08-05T13:06:17.174Z,3.72
2022-08-05T13:08:50.916Z,3.92
2022-08-05T13:11:25.565Z,3.42
2022-08-05T13:14:24.666Z,2.58
2022-08-05T13:17:10.164Z,2.60
2022-08-05T13:19:51.605Z,3.92
2022-08-05T13:22:27.697Z,2.15
2022-08-05T13:25:07.997Z,2.47
2022-08-05T13:27:52.320Z,3.20
2022-08-05T13:34:26.165Z,4.97
2022-08-05T13:36:54.860Z,2.63
2022-08-05T13:39:24.393Z,1.40
2022-08-05T13:42:14.406Z,1.38
2022-08-05T13:44:45.631Z,2.78
2022-08-05T13:47:28.159Z,2.78
2022-08-05T13:50:11.223Z,1.55
2022-08-05T13:52:42.775Z,0.70
2022-08-05T13:55:11.987Z,1.45
2022-08-05T13:58:01.288Z,1.38
2022-08-05T14:00:29.121Z,1.73
2022-08-05T14:02:57.622Z,1.80
2022-08-05T14:05:48.528Z,2.58
2022-08-05T14:08:21.006Z,0.90
2022-08-05T14:10:59.742Z,1.08
2022-08-05T14:13:48.285Z,2.15
2022-08-05T14:16:19.209Z,3.22
2022-08-05T14:18:47.247Z,1.70
2022-08-05T14:21:23.875Z,2.10
2022-08-05T14:24:04.835Z,1.50
2022-08-05T14:26:35.544Z,2.92
2022-08-05T14:29:16.035Z,0.88
2022-08-05T14:32:03.085Z,1.50
2022-08-05T14:34:35.270Z,2.45
2022-08-05T14:37:04.697Z,3.55
2022-08-05T14:39:50.157Z,0.77
2022-08-05T14:42:25.138Z,1.75
2022-08-05T14:44:56.678Z,2.47
2022-08-05T14:48:02.768Z,1.75
2022-08-05T14:50:17.684Z,1.35
2022-08-05T14:52:53.509Z,3.60
2022-08-05T14:55:28.749Z,2.20
2022-08-05T14:58:11.296Z,0.85
2022-08-05T15:00:58.035Z,0.90
2022-08-05T15:03:33.360Z,2.05
2022-08-05T15:06:07.482Z,2.15
2022-08-05T15:08:59.725Z,2.65
2022-08-05T15:11:52.724Z,0.55
2022-08-05T15:14:33.471Z,1.60
2022-08-05T15:17:09.676Z,1.27
2022-08-05T15:19:38.982Z,1.88
2022-08-05T15:22:08.736Z,1.48
2022-08-05T15:24:36.904Z,1.95
2022-08-05T15:27:09.144Z,2.03
2022-08-05T15:29:41.857Z,1.48
2022-08-05T15:32:11.782Z,1.90
2022-08-05T15:34:39.590Z,2.40
2022-08-05T15:37:14.753Z,0.70
2022-08-05T15:40:59.156Z,1.63
2022-08-05T15:42:55.653Z,1.65
2022-08-05T15:45:23.148Z,1.70
2022-08-05T15:48:09.830Z,2.13
2022-08-05T15:50:45.625Z,2.35
2022-08-05T15:53:13.903Z,2.53
2022-08-05T15:56:04.084Z,2.08
2022-08-05T15:58:35.497Z,2.17
2022-08-05T16:01:16.985Z,0.95
2022-08-05T16:03:48.318Z,0.50
2022-08-05T16:06:20.117Z,3.70
2022-08-05T16:08:50.287Z,1.45
2022-08-05T16:11:42.713Z,2.78
2022-08-05T16:14:09.397Z,1.80
2022-08-05T16:16:37.309Z,1.48
2022-08-05T16:19:06.540Z,1.90
2022-08-05T16:22:00.484Z,2.15
2022-08-05T16:24:36.074Z,1.98
2022-08-05T16:27:15.734Z,2.03
2022-08-05T16:29:50.066Z,1.23
2022-08-05T16:32:28.412Z,1.55
2022-08-05T16:35:07.885Z,1.23
2022-08-05T16:38:15.047Z,0.60
2022-08-05T16:40:29.149Z,1.45
2022-08-05T16:42:57.507Z,1.67
2022-08-05T16:46:04.637Z,0.85
2022-08-05T16:48:26.102Z,0.82
2022-08-05T16:51:02.521Z,2.35
2022-08-05T16:54:04.897Z,1.25
2022-08-05T16:56:33.501Z,3.42
2022-08-05T16:59:08.099Z,0.97
2022-08-05T17:01:54.084Z,1.75
2022-08-05T17:04:26.320Z,2.67
2022-08-05T17:07:01.434Z,2.67
2022-08-05T17:09:57.200Z,1.00
2022-08-05T17:12:22.764Z,1.33
2022-08-05T17:15:09.403Z,1.73
2022-08-05T17:17:42.816Z,0.60
2022-08-05T17:20:14.697Z,1.95
2022-08-05T17:22:44.835Z,0.80
2022-08-05T17:25:33.657Z,1.70
2022-08-05T17:28:02.554Z,3.50
2022-08-05T17:30:32.128Z,2.00
2022-08-05T17:33:00.551Z,2.35
2022-08-05T17:35:32.619Z,0.60
2022-08-05T17:38:18.248Z,1.75
2022-08-05T17:40:47.630Z,1.30
2022-08-05T17:43:17.533Z,3.83
2022-08-05T17:45:45.507Z,1.75
2022-08-05T17:48:13.427Z,2.35
2022-08-05T17:50:44.137Z,3.60
2022-08-05T17:53:12.214Z,1.58
2022-08-05T17:55:41.939Z,1.23
2022-08-05T17:58:13.527Z,2.38
2022-08-05T18:00:47.594Z,2.67
2022-08-05T18:03:56.498Z,1.75
2022-08-05T18:06:11.715Z,0.90
2022-08-05T18:08:44.151Z,2.08
2022-08-05T18:11:24.150Z,3.00
2022-08-05T18:14:04.258Z,1.45
2022-08-05T18:16:51.306Z,2.40
2022-08-05T18:19:22.495Z,4.28
2022-08-05T18:22:08.567Z,2.00
2022-08-05T18:24:40.186Z,3.00
2022-08-05T18:27:12.373Z,2.72
2022-08-05T18:29:51.938Z,2.13
2022-08-05T18:32:27.717Z,2.17
2022-08-05T18:34:57.518Z,2.40
2022-08-05T18:37:34.006Z,2.78
2022-08-05T18:40:34.693Z,1.80
2022-08-05T18:43:00.287Z,3.15
2022-08-05T18:45:41.368Z,1.67
2022-08-05T18:48:11.041Z,2.80
2022-08-05T18:51:01.760Z,3.33
2022-08-05T18:53:50.388Z,2.28
2022-08-05T18:56:21.734Z,3.50
2022-08-05T18:58:54.921Z,2.67
2022-08-05T19:01:33.225Z,2.55
2022-08-05T19:04:24.120Z,3.33
2022-08-05T19:06:53.769Z,2.55
2022-08-05T19:09:21.827Z,3.60
2022-08-05T19:11:59.966Z,2.67
2022-08-05T19:14:44.673Z,3.83
2022-08-05T19:17:19.942Z,4.72
2022-08-05T19:19:49.953Z,4.00
2022-08-05T19:22:17.995Z,3.58
2022-08-05T19:24:55.804Z,2.65
2022-08-05T19:27:27.828Z,2.03
2022-08-05T19:30:01.502Z,2.65
2022-08-05T19:32:30.783Z,1.52
2022-08-05T19:34:58.639Z,2.30
2022-08-05T19:37:29.985Z,3.15
2022-08-05T19:40:15.346Z,4.15
2022-08-05T19:43:00.825Z,2.53
2022-08-05T19:45:36.797Z,3.47
2022-08-05T19:48:06.313Z,2.35
2022-08-05T19:50:35.112Z,1.67
2022-08-05T19:53:09.344Z,3.30
2022-08-05T19:56:15.023Z,2.63
2022-08-05T19:58:29.238Z,1.38
2022-08-05T20:00:59.359Z,2.15
2022-08-05T20:03:38.734Z,1.33
2022-08-05T20:06:15.389Z,1.85
2022-08-05T20:08:47.540Z,1.67
2022-08-05T20:11:17.796Z,3.72
2022-08-05T20:13:59.148Z,2.53
2022-08-05T20:16:36.604Z,2.17
2022-08-05T20:19:05.339Z,1.65
2022-08-05T20:21:33.212Z,1.85
2022-08-05T20:24:01.229Z,3.17
2022-08-05T20:26:29.554Z,1.48
2022-08-05T20:29:00.642Z,2.90
2022-08-05T20:31:41.998Z,1.63
2022-08-05T20:34:18.956Z,4.18
2022-08-05T20:36:47.900Z,1.83
2022-08-05T20:39:16.498Z,2.25
2022-08-05T20:41:47.617Z,2.58
2022-08-05T20:44:29.389Z,2.22
2022-08-05T20:46:59.821Z,2.33
2022-08-05T20:49:29.498Z,1.40
2022-08-05T20:52:01.461Z,3.13
2022-08-05T20:54:42.942Z,3.22
2022-08-05T20:57:41.803Z,2.10
2022-08-05T21:00:19.892Z,2.72
2022-08-05T21:02:54.482Z,5.35
2022-08-05T21:05:38.054Z,2.60
2022-08-05T21:08:14.637Z,2.13
2022-08-05T21:10:48.799Z,1.60
2022-08-05T21:13:25.983Z,3.97
2022-08-05T21:15:54.889Z,1.75
2022-08-05T21:18:23.496Z,2.97
2022-08-05T21:20:53.087Z,3.08
2022-08-05T21:23:21.408Z,2.10
2022-08-05T21:25:50.342Z,5.22
2022-08-05T21:28:18.797Z,2.20
2022-08-05T21:30:51.860Z,2.00
2022-08-05T21:33:23.229Z,2.08
2022-08-05T21:35:55.839Z,2.15
2022-08-05T21:40:55.986Z,4.53
2022-08-05T21:43:24.201Z,4.55
2022-08-05T21:45:57.875Z,4.65
2022-08-05T21:50:58.030Z,3.67
2022-08-05T21:53:28.011Z,3.38
2022-08-05T21:56:06.237Z,5.78
2022-08-05T21:58:57.112Z,2.97
2022-08-05T22:01:26.248Z,4.90
2022-08-05T22:03:57.268Z,5.15
2022-08-05T22:06:35.105Z,3.63
2022-08-05T22:09:13.221Z,3.80
2022-08-05T22:11:47.007Z,2.75
2022-08-05T22:14:37.178Z,4.85
2022-08-05T22:17:07.056Z,3.17
2022-08-05T22:20:03.059Z,3.65
2022-08-05T22:22:27.577Z,4.43
2022-08-05T22:25:18.080Z,4.47
2022-08-05T22:28:09.268Z,2.90
2022-08-05T22:30:44.123Z,3.40
2022-08-05T22:33:55.939Z,3.90
2022-08-05T22:36:15.045Z,3.05
2022-08-05T22:38:48.070Z,4.40
2022-08-05T22:42:04.860Z,2.88
2022-08-05T22:44:07.816Z,3.05
2022-08-05T22:46:40.131Z,5.10
2022-08-05T22:49:23.140Z,3.58
2022-08-05T22:52:05.527Z,1.85
2022-08-05T22:54:37.469Z,4.03
2022-08-05T22:57:07.419Z,3.30
2022-08-05T22:59:45.489Z,3.95
2022-08-05T23:02:17.372Z,3.63
2022-08-05T23:04:51.577Z,3.60
2022-08-05T23:07:21.834Z,4.55
2022-08-05T23:10:00.003Z,4.25
2022-08-05T23:12:32.687Z,4.38
2022-08-05T23:15:03.603Z,4.05
2022-08-05T23:17:37.138Z,3.58
2022-08-05T23:20:17.791Z,4.85
2022-08-05T23:22:47.445Z,4.75
2022-08-05T23:25:53.571Z,4.63
2022-08-05T23:28:07.646Z,4.47
2022-08-05T23:30:39.793Z,5.03
2022-08-05T23:33:21.936Z,6.38
2022-08-05T23:35:56.244Z,3.50
2022-08-05T23:38:25.941Z,6.38
2022-08-05T23:40:55.982Z,3.95
2022-08-05T23:43:24.983Z,5.53
2022-08-05T23:46:21.367Z,4.15
2022-08-05T23:48:59.847Z,5.57
2022-08-05T23:51:54.204Z,3.97
2022-08-05T23:54:26.483Z,3.90
